createdAt,value
2022-11-30T00:01:30.988Z,9.73
2022-11-30T00:06:33.522Z,9.80
2022-11-30T00:11:35.262Z,9.76
2022-11-30T00:16:40.166Z,9.44
2022-11-30T00:21:41.951Z,9.36
2022-11-30T00:26:43.689Z,9.49
2022-11-30T00:31:47.576Z,9.41
2022-11-30T00:36:49.398Z,9.40
2022-11-30T00:41:51.039Z,9.49
2022-11-30T00:46:52.797Z,9.53
2022-11-30T00:51:54.587Z,9.59
2022-11-30T00:56:56.489Z,9.66
2022-11-30T01:01:58.239Z,9.62
2022-11-30T01:06:59.861Z,9.59
2022-11-30T01:12:01.558Z,9.74
2022-11-30T01:17:03.276Z,9.83
2022-11-30T01:22:05.035Z,9.83
2022-11-30T01:27:06.813Z,9.89
2022-11-30T01:32:08.546Z,9.92
2022-11-30T01:37:10.207Z,10.00
2022-11-30T01:42:18.781Z,10.05
2022-11-30T01:47:34.728Z,10.06
2022-11-30T01:52:40.446Z,9.76
2022-11-30T01:57:47.198Z,9.62
2022-11-30T02:03:07.771Z,9.46
2022-11-30T02:08:11.132Z,9.18
2022-11-30T02:13:41.833Z,9.08
2022-11-30T02:18:55.730Z,9.02
2022-11-30T02:24:25.475Z,9.19
2022-11-30T02:29:34.688Z,9.23
2022-11-30T02:34:37.966Z,9.34
2022-11-30T02:39:39.697Z,9.51
2022-11-30T02:44:43.096Z,9.54
2022-11-30T02:50:00.270Z,9.05
2022-11-30T02:55:07.541Z,8.81
2022-11-30T03:00:11.153Z,8.85
2022-11-30T03:05:12.917Z,8.68
2022-11-30T03:10:14.924Z,8.59
2022-11-30T03:15:16.816Z,8.50
2022-11-30T03:20:18.579Z,8.74
2022-11-30T03:25:20.260Z,8.95
2022-11-30T03:30:21.980Z,8.96
2022-11-30T03:35:24.665Z,9.16
2022-11-30T03:40:26.392Z,9.33
2022-11-30T03:45:28.109Z,9.27
2022-11-30T03:50:29.844Z,9.34
2022-11-30T03:55:31.572Z,9.39
2022-11-30T04:00:33.224Z,9.41
2022-11-30T04:05:34.916Z,9.49
2022-11-30T04:10:36.660Z,9.58
2022-11-30T04:15:38.390Z,9.72
2022-11-30T04:20:40.783Z,9.77
2022-11-30T04:25:42.870Z,9.34
2022-11-30T04:30:46.005Z,9.24
2022-11-30T04:35:55.185Z,9.18
2022-11-30T04:40:56.971Z,8.93
2022-11-30T04:45:58.728Z,8.83
2022-11-30T04:51:01.512Z,8.73
2022-11-30T04:56:11.086Z,8.72
2022-11-30T05:01:12.894Z,8.78
2022-11-30T05:06:14.652Z,8.86
2022-11-30T05:11:16.486Z,8.92
2022-11-30T05:16:18.285Z,8.74
2022-11-30T05:21:20.101Z,8.58
2022-11-30T05:26:21.821Z,8.46
2022-11-30T05:31:23.778Z,8.54
2022-11-30T05:36:25.749Z,8.73
2022-11-30T05:41:27.547Z,8.93
2022-11-30T05:46:29.450Z,8.91
2022-11-30T05:51:31.411Z,8.63
2022-11-30T05:56:33.143Z,8.56
2022-11-30T06:01:34.787Z,8.70
2022-11-30T06:06:36.536Z,8.55
2022-11-30T06:11:38.260Z,8.38
2022-11-30T06:16:40.107Z,8.72
2022-11-30T06:21:42.016Z,8.92
2022-11-30T06:26:43.771Z,9.00
2022-11-30T06:31:45.618Z,9.18
2022-11-30T06:36:47.389Z,9.28
2022-11-30T06:41:54.348Z,9.36
2022-11-30T06:46:56.430Z,9.38
2022-11-30T06:51:58.263Z,9.39
2022-11-30T06:57:00.013Z,9.31
2022-11-30T07:02:08.092Z,9.25
2022-11-30T07:07:11.515Z,9.32
2022-11-30T07:12:13.359Z,9.25
2022-11-30T07:17:15.138Z,9.20
2022-11-30T07:22:16.866Z,9.05
2022-11-30T07:27:18.589Z,8.95
2022-11-30T07:32:20.270Z,9.09
2022-11-30T07:37:22.146Z,8.94
2022-11-30T07:42:23.868Z,8.73
2022-11-30T07:47:30.621Z,8.69
2022-11-30T07:52:32.497Z,8.69
2022-11-30T07:57:34.251Z,8.50
2022-11-30T08:02:36.000Z,8.59
2022-11-30T08:07:37.784Z,8.49
2022-11-30T08:12:39.504Z,8.57
2022-11-30T08:17:41.475Z,8.80
2022-11-30T08:22:43.261Z,9.01
2022-11-30T08:27:45.204Z,9.13
2022-11-30T08:32:46.898Z,9.23
2022-11-30T08:37:48.562Z,9.17
2022-11-30T08:42:50.262Z,9.00
2022-11-30T08:47:54.191Z,9.07
2022-11-30T08:52:59.377Z,9.18
2022-11-30T08:58:03.517Z,9.06
2022-11-30T09:03:05.215Z,9.00
2022-11-30T09:08:06.938Z,9.12
2022-11-30T09:13:08.819Z,9.20
2022-11-30T09:18:11.410Z,9.26
2022-11-30T09:23:13.288Z,9.29
2022-11-30T09:28:15.007Z,9.28
2022-11-30T09:33:16.925Z,9.21
2022-11-30T09:38:18.727Z,9.18
2022-11-30T09:43:49.684Z,9.17
2022-11-30T09:49:19.522Z,9.27
2022-11-30T09:54:35.725Z,9.25
2022-11-30T09:59:38.540Z,9.05
2022-11-30T10:04:40.758Z,8.99
2022-11-30T10:10:09.413Z,9.26
2022-11-30T10:15:38.055Z,9.50
2022-11-30T10:20:52.719Z,9.53
2022-11-30T10:26:04.570Z,9.67
2022-11-30T10:31:12.679Z,9.87
2022-11-30T10:36:33.462Z,10.09
2022-11-30T10:41:45.796Z,9.95
2022-11-30T10:47:01.077Z,9.78
2022-11-30T10:52:08.846Z,9.95
2022-11-30T10:57:10.778Z,10.14
2022-11-30T11:02:37.739Z,10.17
2022-11-30T11:07:50.448Z,9.81
2022-11-30T11:12:55.031Z,9.73
2022-11-30T11:18:32.207Z,9.95
2022-11-30T11:23:44.925Z,10.30
2022-11-30T11:28:52.119Z,10.51
2022-11-30T11:33:54.584Z,10.64
2022-11-30T11:38:57.625Z,10.80
2022-11-30T11:44:21.294Z,10.95
2022-11-30T11:49:29.692Z,11.02
2022-11-30T11:54:37.331Z,10.89
2022-11-30T12:00:02.348Z,10.91
2022-11-30T12:05:16.218Z,11.00
2022-11-30T12:10:56.889Z,11.12
2022-11-30T12:16:20.534Z,11.21
2022-11-30T12:21:30.514Z,11.28
2022-11-30T12:26:47.492Z,11.40
2022-11-30T12:31:56.884Z,11.47
2022-11-30T12:37:17.974Z,11.46
2022-11-30T12:42:32.347Z,11.48
2022-11-30T12:47:51.371Z,11.55
2022-11-30T12:53:14.249Z,11.43
2022-11-30T12:58:27.864Z,11.44
2022-11-30T13:03:44.103Z,11.47
2022-11-30T13:09:11.526Z,11.54
2022-11-30T13:14:20.482Z,11.62
2022-11-30T13:20:08.204Z,11.60
2022-11-30T13:26:06.738Z,11.56
2022-11-30T13:31:04.304Z,11.51
2022-11-30T13:36:22.230Z,11.53
2022-11-30T13:41:23.950Z,11.54
2022-11-30T13:46:25.603Z,11.05
2022-11-30T13:51:34.828Z,10.67
2022-11-30T13:56:36.677Z,10.42
2022-11-30T14:01:38.472Z,10.18
2022-11-30T14:06:43.226Z,10.19
2022-11-30T14:11:45.790Z,10.25
2022-11-30T14:16:47.826Z,10.31
2022-11-30T14:21:49.859Z,10.28
2022-11-30T14:26:51.996Z,10.10
2022-11-30T14:32:08.154Z,10.14
2022-11-30T14:37:19.175Z,10.02
2022-11-30T14:42:21.347Z,9.95
2022-11-30T14:47:26.911Z,9.75
2022-11-30T14:53:13.753Z,9.54
2022-11-30T14:58:16.326Z,9.34
2022-11-30T15:03:20.502Z,9.32
2022-11-30T15:08:24.093Z,9.31
2022-11-30T15:13:26.496Z,9.22
2022-11-30T15:18:28.241Z,9.10
2022-11-30T15:23:30.263Z,9.11
2022-11-30T15:28:38.066Z,9.10
2022-11-30T15:33:46.166Z,9.16
2022-11-30T15:38:53.081Z,9.11
2022-11-30T15:43:57.355Z,9.07
2022-11-30T15:49:22.727Z,9.27
2022-11-30T15:54:47.162Z,9.35
2022-11-30T16:00:09.119Z,9.40
2022-11-30T16:05:14.900Z,9.38
2022-11-30T16:10:40.107Z,9.28
2022-11-30T16:15:47.622Z,9.35
2022-11-30T16:20:56.460Z,9.38
2022-11-30T16:25:58.460Z,9.28
2022-11-30T16:31:00.637Z,9.32
2022-11-30T16:36:07.527Z,9.37
2022-11-30T16:41:20.996Z,9.42
2022-11-30T16:46:25.626Z,9.50
2022-11-30T16:51:30.794Z,9.51
2022-11-30T16:56:33.392Z,9.56
2022-11-30T17:01:42.799Z,9.42
2022-11-30T17:06:49.983Z,9.25
2022-11-30T17:11:52.736Z,9.15
2022-11-30T17:16:54.676Z,9.25
2022-11-30T17:21:56.803Z,9.26
2022-11-30T17:27:00.037Z,9.23
2022-11-30T17:32:01.807Z,9.33
2022-11-30T17:37:03.673Z,9.45
2022-11-30T17:42:06.167Z,9.52
2022-11-30T17:47:07.920Z,9.42
2022-11-30T17:52:10.229Z,9.48
2022-11-30T17:57:11.985Z,9.59
2022-11-30T18:02:13.831Z,9.64
2022-11-30T18:07:15.794Z,9.63
2022-11-30T18:12:17.645Z,9.57
2022-11-30T18:17:19.403Z,9.69
2022-11-30T18:22:21.205Z,9.65
2022-11-30T18:27:23.018Z,9.50
2022-11-30T18:32:24.809Z,9.42
2022-11-30T18:37:26.635Z,9.23
2022-11-30T18:42:28.411Z,9.01
2022-11-30T18:47:30.294Z,8.99
2022-11-30T18:52:32.079Z,9.09
2022-11-30T18:57:35.897Z,9.10
2022-11-30T19:02:37.769Z,9.16
2022-11-30T19:07:40.037Z,9.06
2022-11-30T19:12:42.040Z,8.92
2022-11-30T19:17:44.134Z,8.79
2022-11-30T19:22:46.004Z,8.64
2022-11-30T19:27:47.664Z,8.65
2022-11-30T19:32:49.442Z,8.79
2022-11-30T19:37:54.203Z,8.93
2022-11-30T19:42:56.595Z,8.95
2022-11-30T19:47:58.372Z,9.01
2022-11-30T19:53:00.461Z,8.89
2022-11-30T19:58:02.343Z,8.88
2022-11-30T20:03:09.740Z,9.13
2022-11-30T20:08:11.591Z,9.13
2022-11-30T20:13:13.505Z,8.90
2022-11-30T20:18:15.282Z,8.90
2022-11-30T20:23:17.160Z,8.99
2022-11-30T20:28:18.940Z,8.94
2022-11-30T20:33:20.678Z,9.01
2022-11-30T20:38:22.596Z,9.04
2022-11-30T20:43:25.070Z,9.12
2022-11-30T20:48:26.951Z,9.09
2022-11-30T20:53:28.874Z,9.22
2022-11-30T20:58:31.141Z,9.36
2022-11-30T21:03:32.918Z,9.47
2022-11-30T21:08:36.451Z,9.49
2022-11-30T21:13:39.541Z,9.45
2022-11-30T21:18:44.042Z,9.43
2022-11-30T21:23:47.322Z,9.49
2022-11-30T21:28:53.282Z,9.59
2022-11-30T21:33:55.153Z,9.64
2022-11-30T21:39:04.997Z,9.62
2022-11-30T21:44:12.325Z,9.52
2022-11-30T21:49:15.740Z,9.42
2022-11-30T21:54:17.619Z,9.41
2022-11-30T21:59:19.496Z,9.44
2022-11-30T22:04:21.421Z,9.43
2022-11-30T22:09:23.361Z,9.38
2022-11-30T22:14:25.967Z,9.42
2022-11-30T22:19:27.711Z,9.46
2022-11-30T22:24:29.568Z,9.64
2022-11-30T22:29:31.557Z,9.74
2022-11-30T22:34:37.986Z,9.83
2022-11-30T22:39:39.864Z,9.90
2022-11-30T22:44:42.255Z,10.08
2022-11-30T22:49:44.114Z,10.20
2022-11-30T22:54:46.010Z,10.19
2022-11-30T22:59:48.129Z,9.93
2022-11-30T23:04:50.183Z,9.85
2022-11-30T23:09:52.066Z,9.90
2022-11-30T23:14:53.942Z,9.98
2022-11-30T23:19:55.674Z,10.01
2022-11-30T23:24:57.497Z,9.96
2022-11-30T23:29:59.479Z,9.79
2022-11-30T23:35:01.240Z,9.65
2022-11-30T23:40:04.260Z,9.60
2022-11-30T23:45:06.852Z,9.46
2022-11-30T23:50:09.348Z,9.58
2022-11-30T23:55:11.339Z,9.60
